createdAt,value
2022-09-17T00:01:45.955Z,17.34
2022-09-17T00:04:14.865Z,17.30
2022-09-17T00:06:43.801Z,17.33
2022-09-17T00:09:15.584Z,17.36
2022-09-17T00:11:45.307Z,17.48
2022-09-17T00:14:16.632Z,17.37
2022-09-17T00:16:48.048Z,17.46
2022-09-17T00:19:19.819Z,17.49
2022-09-17T00:21:48.850Z,17.45
2022-09-17T00:24:20.658Z,17.48
2022-09-17T00:26:50.466Z,17.44
2022-09-17T00:29:19.417Z,17.40
2022-09-17T00:31:48.296Z,17.38
2022-09-17T00:34:17.121Z,17.41
2022-09-17T00:36:45.872Z,17.32
2022-09-17T00:39:16.487Z,17.27
2022-09-17T00:41:46.855Z,17.13
2022-09-17T00:44:41.496Z,17.00
2022-09-17T00:47:17.282Z,16.89
2022-09-17T00:49:46.719Z,16.78
2022-09-17T00:52:17.424Z,16.75
2022-09-17T00:54:54.052Z,16.67
2022-09-17T00:57:24.646Z,16.73
2022-09-17T00:59:53.720Z,16.68
2022-09-17T01:02:22.673Z,16.61
2022-09-17T01:04:51.398Z,16.56
2022-09-17T01:07:34.891Z,16.62
2022-09-17T01:10:14.725Z,16.57
2022-09-17T01:13:00.274Z,16.60
2022-09-17T01:15:38.930Z,16.67
2022-09-17T01:18:19.358Z,16.71
2022-09-17T01:21:27.965Z,16.82
2022-09-17T01:24:29.009Z,16.91
2022-09-17T01:27:25.663Z,16.86
2022-09-17T01:30:12.539Z,16.81
2022-09-17T01:32:47.737Z,16.79
2022-09-17T01:35:22.010Z,16.80
2022-09-17T01:37:59.903Z,16.81
2022-09-17T01:40:34.831Z,16.79
2022-09-17T01:43:08.967Z,16.74
2022-09-17T01:45:43.744Z,16.73
2022-09-17T01:48:18.845Z,16.79
2022-09-17T01:50:52.824Z,16.96
2022-09-17T01:53:27.259Z,16.87
2022-09-17T01:56:00.100Z,17.01
2022-09-17T01:58:34.149Z,17.08
2022-09-17T02:01:06.675Z,17.00
2022-09-17T02:03:42.410Z,16.99
2022-09-17T02:06:14.426Z,16.98
2022-09-17T02:08:48.585Z,16.94
2022-09-17T02:11:17.731Z,16.87
2022-09-17T02:13:50.561Z,17.02
2022-09-17T02:16:24.450Z,17.10
2022-09-17T02:18:57.735Z,17.04
2022-09-17T02:21:33.225Z,17.02
2022-09-17T02:24:09.461Z,16.94
2022-09-17T02:26:42.260Z,16.81
2022-09-17T02:29:17.621Z,16.83
2022-09-17T02:31:46.548Z,16.91
2022-09-17T02:34:17.104Z,17.02
2022-09-17T02:36:47.018Z,17.04
2022-09-17T02:39:15.851Z,17.14
2022-09-17T02:41:53.406Z,17.05
2022-09-17T02:44:35.969Z,17.18
2022-09-17T02:47:21.441Z,17.06
2022-09-17T02:50:04.173Z,17.13
2022-09-17T02:52:47.106Z,17.10
2022-09-17T02:55:20.236Z,17.17
2022-09-17T02:57:54.858Z,17.17
2022-09-17T03:00:24.974Z,17.17
2022-09-17T03:03:00.855Z,17.21
2022-09-17T03:05:32.171Z,17.27
2022-09-17T03:08:02.033Z,17.26
2022-09-17T03:10:33.782Z,17.05
2022-09-17T03:13:02.598Z,16.97
2022-09-17T03:15:31.462Z,16.99
2022-09-17T03:18:00.129Z,17.05
2022-09-17T03:20:28.797Z,17.09
2022-09-17T03:22:59.017Z,17.14
2022-09-17T03:25:27.854Z,17.22
2022-09-17T03:27:58.687Z,17.21
2022-09-17T03:30:27.503Z,17.23
2022-09-17T03:32:56.213Z,17.22
2022-09-17T03:35:24.998Z,17.32
2022-09-17T03:37:53.767Z,17.35
2022-09-17T03:40:24.203Z,17.36
2022-09-17T03:42:53.036Z,17.34
2022-09-17T03:45:21.687Z,17.21
2022-09-17T03:47:50.441Z,16.84
2022-09-17T03:50:19.349Z,17.02
2022-09-17T03:52:48.252Z,17.15
2022-09-17T03:55:17.471Z,17.13
2022-09-17T03:57:47.435Z,16.93
2022-09-17T04:00:17.680Z,17.10
2022-09-17T04:02:46.519Z,17.19
2022-09-17T04:05:15.504Z,17.18
2022-09-17T04:07:44.226Z,17.24
2022-09-17T04:10:12.930Z,17.25
2022-09-17T04:12:41.786Z,17.27
2022-09-17T04:15:12.592Z,17.35
2022-09-17T04:17:41.370Z,17.39
2022-09-17T04:20:11.048Z,17.45
2022-09-17T04:22:39.910Z,17.51
2022-09-17T04:25:09.506Z,17.43
2022-09-17T04:27:39.145Z,17.54
2022-09-17T04:30:08.853Z,17.57
2022-09-17T04:32:39.277Z,17.62
2022-09-17T04:35:08.641Z,17.68
2022-09-17T04:37:37.380Z,17.77
2022-09-17T04:40:08.216Z,17.80
2022-09-17T04:42:37.272Z,17.83
2022-09-17T04:45:06.771Z,17.84
2022-09-17T04:47:35.658Z,17.89
2022-09-17T04:50:06.456Z,17.89
2022-09-17T04:52:35.328Z,17.86
2022-09-17T04:55:04.372Z,17.86
2022-09-17T04:57:33.228Z,17.84
2022-09-17T05:00:02.248Z,17.81
2022-09-17T05:02:32.741Z,17.68
2022-09-17T05:05:01.751Z,17.78
2022-09-17T05:07:33.398Z,17.79
2022-09-17T05:10:02.088Z,17.85
2022-09-17T05:12:34.489Z,17.89
2022-09-17T05:15:03.744Z,17.90
2022-09-17T05:17:32.566Z,17.90
2022-09-17T05:20:01.373Z,17.88
2022-09-17T05:22:33.288Z,17.96
2022-09-17T05:25:02.128Z,17.94
2022-09-17T05:27:31.581Z,17.94
2022-09-17T05:30:00.315Z,17.97
2022-09-17T05:32:29.120Z,18.00
2022-09-17T05:34:57.847Z,18.02
2022-09-17T05:37:26.591Z,18.06
2022-09-17T05:39:56.893Z,18.09
2022-09-17T05:42:25.531Z,18.04
2022-09-17T05:44:54.245Z,18.08
2022-09-17T05:47:23.079Z,18.05
2022-09-17T05:49:51.802Z,17.98
2022-09-17T05:52:20.786Z,17.84
2022-09-17T05:54:49.948Z,17.99
2022-09-17T05:57:20.666Z,17.97
2022-09-17T05:59:49.626Z,18.02
2022-09-17T06:02:18.569Z,18.03
2022-09-17T06:04:47.753Z,18.03
2022-09-17T06:07:16.626Z,17.98
2022-09-17T06:09:45.395Z,17.80
2022-09-17T06:12:14.291Z,17.74
2022-09-17T06:14:44.622Z,17.89
2022-09-17T06:17:13.589Z,17.90
2022-09-17T06:19:42.305Z,17.82
2022-09-17T06:22:11.264Z,17.73
2022-09-17T06:24:40.037Z,17.81
2022-09-17T06:27:08.846Z,17.82
2022-09-17T06:29:37.767Z,17.85
2022-09-17T06:32:11.148Z,17.89
2022-09-17T06:34:40.126Z,17.94
2022-09-17T06:37:08.934Z,17.99
2022-09-17T06:39:37.850Z,18.03
2022-09-17T06:42:07.553Z,18.16
2022-09-17T06:44:36.547Z,18.14
2022-09-17T06:47:05.755Z,18.20
2022-09-17T06:49:36.071Z,18.27
2022-09-17T06:52:05.611Z,18.16
2022-09-17T06:54:34.605Z,18.18
2022-09-17T06:57:03.545Z,18.20
2022-09-17T06:59:32.464Z,18.12
2022-09-17T07:02:01.426Z,18.11
2022-09-17T07:04:30.392Z,18.19
2022-09-17T07:07:00.705Z,18.19
2022-09-17T07:09:29.744Z,18.35
2022-09-17T07:11:58.873Z,18.45
2022-09-17T07:14:27.797Z,18.60
2022-09-17T07:16:56.778Z,18.86
2022-09-17T07:19:25.754Z,19.07
2022-09-17T07:21:54.729Z,19.22
2022-09-17T07:24:27.502Z,19.35
2022-09-17T07:26:59.728Z,19.38
2022-09-17T07:29:28.807Z,19.39
2022-09-17T07:31:58.633Z,19.10
2022-09-17T07:34:29.233Z,18.97
2022-09-17T07:36:58.589Z,18.98
2022-09-17T07:39:29.225Z,18.97
2022-09-17T07:41:58.138Z,19.01
2022-09-17T07:44:26.924Z,19.19
2022-09-17T07:46:55.940Z,19.26
2022-09-17T07:49:24.829Z,19.34
2022-09-17T07:51:55.025Z,19.38
2022-09-17T07:54:23.967Z,19.37
2022-09-17T07:56:54.445Z,19.45
2022-09-17T07:59:23.448Z,19.51
2022-09-17T08:01:52.644Z,19.43
2022-09-17T08:04:21.790Z,19.41
2022-09-17T08:06:51.037Z,19.43
2022-09-17T08:09:19.918Z,19.43
2022-09-17T08:11:56.825Z,19.44
2022-09-17T08:14:29.677Z,19.54
2022-09-17T08:16:58.744Z,19.64
2022-09-17T08:19:28.753Z,19.63
2022-09-17T08:21:58.440Z,19.63
2022-09-17T08:24:27.853Z,19.54
2022-09-17T08:26:56.622Z,19.66
2022-09-17T08:29:27.096Z,19.74
2022-09-17T08:31:56.057Z,19.74
2022-09-17T08:34:25.038Z,19.72
2022-09-17T08:36:53.904Z,19.58
2022-09-17T08:39:22.646Z,19.69
2022-09-17T08:41:56.791Z,19.80
2022-09-17T08:44:41.286Z,19.82
2022-09-17T08:47:18.700Z,19.75
2022-09-17T08:49:54.005Z,19.67
2022-09-17T08:53:02.352Z,19.66
2022-09-17T08:55:41.853Z,19.72
2022-09-17T08:58:31.400Z,19.71
2022-09-17T09:01:11.958Z,19.46
2022-09-17T09:03:56.026Z,19.61
2022-09-17T09:06:31.107Z,19.60
2022-09-17T09:09:03.827Z,19.58
2022-09-17T09:11:33.326Z,19.55
2022-09-17T09:14:08.630Z,19.55
2022-09-17T09:16:42.760Z,19.55
2022-09-17T09:19:21.415Z,19.56
2022-09-17T09:22:03.176Z,19.62
2022-09-17T09:24:42.308Z,19.55
2022-09-17T09:27:19.227Z,19.53
2022-09-17T09:30:04.159Z,19.55
2022-09-17T09:32:53.309Z,19.57
2022-09-17T09:35:25.666Z,19.60
2022-09-17T09:38:01.305Z,19.52
2022-09-17T09:40:42.930Z,19.63
2022-09-17T09:43:21.317Z,19.65
2022-09-17T09:46:11.156Z,19.62
2022-09-17T09:48:48.412Z,19.53
2022-09-17T09:51:31.274Z,19.51
2022-09-17T09:54:13.650Z,19.52
2022-09-17T09:56:57.199Z,19.42
2022-09-17T09:59:26.631Z,19.30
2022-09-17T10:01:55.744Z,19.20
2022-09-17T10:04:28.398Z,19.16
2022-09-17T10:07:03.835Z,19.02
2022-09-17T10:09:34.567Z,19.05
2022-09-17T10:12:06.946Z,19.16
2022-09-17T10:14:37.072Z,19.16
2022-09-17T10:17:21.151Z,19.22
2022-09-17T10:20:20.760Z,19.33
2022-09-17T10:22:51.970Z,19.40
2022-09-17T10:25:35.315Z,19.49
2022-09-17T10:28:05.523Z,19.52
2022-09-17T10:30:34.872Z,19.57
2022-09-17T10:33:19.144Z,19.69
2022-09-17T10:36:07.966Z,19.79
2022-09-17T10:38:39.067Z,19.80
2022-09-17T10:41:16.931Z,19.88
2022-09-17T10:43:46.277Z,20.02
2022-09-17T10:46:22.855Z,20.17
2022-09-17T10:49:08.471Z,20.29
2022-09-17T10:51:38.868Z,20.37
2022-09-17T10:54:21.036Z,20.36
2022-09-17T10:56:55.554Z,20.48
2022-09-17T10:59:45.517Z,20.50
2022-09-17T11:02:43.278Z,20.44
2022-09-17T11:05:32.875Z,20.45
2022-09-17T11:08:11.405Z,20.53
2022-09-17T11:10:45.803Z,20.53
2022-09-17T11:13:24.912Z,20.74
2022-09-17T11:16:19.944Z,20.93
2022-09-17T11:18:56.229Z,21.09
2022-09-17T11:21:37.468Z,21.29
2022-09-17T11:24:46.866Z,21.86
2022-09-17T11:27:26.707Z,22.09
2022-09-17T11:30:09.363Z,22.35
2022-09-17T11:33:02.156Z,22.55
2022-09-17T11:35:34.850Z,22.55
2022-09-17T11:38:08.447Z,22.44
2022-09-17T11:40:44.975Z,22.62
2022-09-17T11:43:20.950Z,22.44
2022-09-17T11:46:00.782Z,22.44
2022-09-17T11:48:39.651Z,22.29
2022-09-17T11:51:22.179Z,22.13
2022-09-17T11:53:54.897Z,22.02
2022-09-17T11:56:31.325Z,21.87
2022-09-17T12:01:40.607Z,21.90
2022-09-17T12:04:31.026Z,21.95
2022-09-17T12:07:09.591Z,21.94
2022-09-17T12:09:44.414Z,21.88
2022-09-17T12:12:45.018Z,21.94
2022-09-17T12:15:16.954Z,21.89
2022-09-17T12:17:50.955Z,21.68
2022-09-17T12:20:26.398Z,21.63
2022-09-17T12:22:56.864Z,21.53
2022-09-17T12:25:27.747Z,21.51
2022-09-17T12:28:01.956Z,21.33
2022-09-17T12:30:33.814Z,21.29
2022-09-17T12:33:17.107Z,21.15
2022-09-17T12:36:05.826Z,21.09
2022-09-17T12:39:03.079Z,20.95
2022-09-17T12:41:44.418Z,20.82
2022-09-17T12:44:31.255Z,20.77
2022-09-17T12:47:27.125Z,20.84
2022-09-17T12:50:05.648Z,20.79
2022-09-17T12:52:52.784Z,20.65
2022-09-17T12:55:37.648Z,20.64
2022-09-17T12:58:19.270Z,20.60
2022-09-17T13:00:55.068Z,20.55
2022-09-17T13:03:30.698Z,20.58
2022-09-17T13:06:19.342Z,20.55
2022-09-17T13:09:39.028Z,20.47
2022-09-17T13:12:27.885Z,20.43
2022-09-17T13:15:07.577Z,20.47
2022-09-17T13:17:46.694Z,20.52
2022-09-17T13:20:24.662Z,20.51
2022-09-17T13:22:55.731Z,20.59
2022-09-17T13:25:24.942Z,20.46
2022-09-17T13:28:07.776Z,20.49
2022-09-17T13:30:59.573Z,20.48
2022-09-17T13:33:51.846Z,20.47
2022-09-17T13:36:49.384Z,20.53
2022-09-17T13:39:47.552Z,20.44
2022-09-17T13:42:24.578Z,20.37
2022-09-17T13:45:04.144Z,20.37
2022-09-17T13:47:35.510Z,20.26
2022-09-17T13:50:09.022Z,20.31
2022-09-17T13:52:45.992Z,20.27
2022-09-17T13:55:34.359Z,20.30
2022-09-17T13:58:05.178Z,20.28
2022-09-17T14:00:53.074Z,20.26
2022-09-17T14:03:52.661Z,20.23
2022-09-17T14:06:54.017Z,20.21
2022-09-17T14:09:46.472Z,20.20
2022-09-17T14:12:56.800Z,20.15
2022-09-17T14:16:00.895Z,20.02
2022-09-17T14:18:59.114Z,19.83
2022-09-17T14:21:31.914Z,19.80
2022-09-17T14:24:04.479Z,19.72
2022-09-17T14:27:01.240Z,19.64
2022-09-17T14:29:59.738Z,19.44
2022-09-17T14:32:33.724Z,19.34
2022-09-17T14:35:05.297Z,19.19
2022-09-17T14:37:35.166Z,19.32
2022-09-17T14:40:10.616Z,19.33
2022-09-17T14:42:40.452Z,19.35
2022-09-17T14:45:18.060Z,19.16
2022-09-17T14:47:46.934Z,19.16
2022-09-17T14:50:23.804Z,19.10
2022-09-17T14:52:53.657Z,19.20
2022-09-17T14:55:26.679Z,19.32
2022-09-17T14:57:56.329Z,19.35
2022-09-17T15:00:26.696Z,19.31
2022-09-17T15:02:59.771Z,19.29
2022-09-17T15:05:32.156Z,19.27
2022-09-17T15:08:13.445Z,19.33
2022-09-17T15:10:50.805Z,19.34
2022-09-17T15:13:22.503Z,19.34
2022-09-17T15:16:01.099Z,19.37
2022-09-17T15:18:40.077Z,19.39
2022-09-17T15:21:24.271Z,19.42
2022-09-17T15:23:59.876Z,19.46
2022-09-17T15:26:35.016Z,19.30
2022-09-17T15:29:05.733Z,19.35
2022-09-17T15:31:36.967Z,19.34
2022-09-17T15:34:06.444Z,19.14
2022-09-17T15:36:35.401Z,19.23
2022-09-17T15:39:31.042Z,19.12
2022-09-17T15:42:01.326Z,19.12
2022-09-17T15:44:31.458Z,19.07
2022-09-17T15:47:38.113Z,19.15
2022-09-17T15:50:16.996Z,19.18
2022-09-17T15:52:46.618Z,19.20
2022-09-17T15:55:33.300Z,19.05
2022-09-17T15:58:06.521Z,19.03
2022-09-17T16:00:35.439Z,18.96
2022-09-17T16:04:05.841Z,18.99
2022-09-17T16:06:40.876Z,18.88
2022-09-17T16:09:41.179Z,19.03
2022-09-17T16:12:13.803Z,19.07
2022-09-17T16:14:52.438Z,19.09
2022-09-17T16:17:45.405Z,19.07
2022-09-17T16:20:18.037Z,19.06
2022-09-17T16:22:48.407Z,19.12
2022-09-17T16:25:18.681Z,19.22
2022-09-17T16:27:51.651Z,19.18
2022-09-17T16:30:23.740Z,19.25
2022-09-17T16:32:53.971Z,19.26
2022-09-17T16:35:24.276Z,19.20
2022-09-17T16:37:54.885Z,19.31
2022-09-17T16:40:28.374Z,19.29
2022-09-17T16:42:57.604Z,19.28
2022-09-17T16:45:29.101Z,19.13
2022-09-17T16:47:58.684Z,19.23
2022-09-17T16:50:28.001Z,19.22
2022-09-17T16:52:58.686Z,19.27
2022-09-17T16:55:30.540Z,19.30
2022-09-17T16:57:59.959Z,19.13
2022-09-17T17:00:30.341Z,19.18
2022-09-17T17:02:59.727Z,19.18
2022-09-17T17:05:29.072Z,19.15
2022-09-17T17:08:01.209Z,19.12
2022-09-17T17:10:32.314Z,19.12
2022-09-17T17:13:01.324Z,19.06
2022-09-17T17:15:31.892Z,19.00
2022-09-17T17:18:00.876Z,19.04
2022-09-17T17:20:31.081Z,19.00
2022-09-17T17:23:00.081Z,18.88
2022-09-17T17:25:28.994Z,18.78
2022-09-17T17:27:57.999Z,18.64
2022-09-17T17:30:26.976Z,18.68
2022-09-17T17:33:00.563Z,18.66
2022-09-17T17:35:29.566Z,18.63
2022-09-17T17:37:58.437Z,18.60
2022-09-17T17:40:27.662Z,18.78
2022-09-17T17:42:56.640Z,18.89
2022-09-17T17:45:25.448Z,18.88
2022-09-17T17:47:54.316Z,18.97
2022-09-17T17:50:24.738Z,18.99
2022-09-17T17:52:56.103Z,18.94
2022-09-17T17:55:25.835Z,18.84
2022-09-17T17:58:01.169Z,18.74
2022-09-17T18:00:30.686Z,18.80
2022-09-17T18:02:59.713Z,18.75
2022-09-17T18:05:29.953Z,18.56
2022-09-17T18:07:58.926Z,18.68
2022-09-17T18:10:28.038Z,18.63
2022-09-17T18:12:56.840Z,18.68
2022-09-17T18:15:25.794Z,18.60
2022-09-17T18:17:54.736Z,18.58
2022-09-17T18:20:23.614Z,18.55
2022-09-17T18:22:54.702Z,18.52
2022-09-17T18:25:23.602Z,18.55
2022-09-17T18:27:52.454Z,18.52
2022-09-17T18:30:21.936Z,18.62
2022-09-17T18:32:50.794Z,18.54
2022-09-17T18:35:20.302Z,18.37
2022-09-17T18:37:49.214Z,18.50
2022-09-17T18:40:19.938Z,18.46
2022-09-17T18:42:50.198Z,18.39
2022-09-17T18:45:19.134Z,18.46
2022-09-17T18:47:48.076Z,18.37
2022-09-17T18:50:18.044Z,18.43
2022-09-17T18:52:47.036Z,18.42
2022-09-17T18:55:16.124Z,18.38
2022-09-17T18:57:46.567Z,18.46
2022-09-17T19:00:15.878Z,18.42
2022-09-17T19:02:44.845Z,18.42
2022-09-17T19:05:13.888Z,18.44
2022-09-17T19:07:45.895Z,18.33
2022-09-17T19:10:15.617Z,18.34
2022-09-17T19:12:46.055Z,18.05
2022-09-17T19:15:15.322Z,18.06
2022-09-17T19:17:44.232Z,18.19
2022-09-17T19:20:13.315Z,18.07
2022-09-17T19:22:42.437Z,18.11
2022-09-17T19:25:11.476Z,18.16
2022-09-17T19:27:40.376Z,18.16
2022-09-17T19:30:12.400Z,18.22
2022-09-17T19:32:43.191Z,18.22
2022-09-17T19:35:12.216Z,18.13
2022-09-17T19:37:41.112Z,18.17
2022-09-17T19:40:12.115Z,18.09
2022-09-17T19:42:40.980Z,18.14
2022-09-17T19:45:12.039Z,17.94
2022-09-17T19:47:41.018Z,18.06
2022-09-17T19:50:10.690Z,18.01
2022-09-17T19:52:39.673Z,17.85
2022-09-17T19:55:12.839Z,17.85
2022-09-17T19:57:42.407Z,17.84
2022-09-17T20:00:14.257Z,17.89
2022-09-17T20:02:43.269Z,17.92
2022-09-17T20:05:12.526Z,17.86
2022-09-17T20:07:42.946Z,17.95
2022-09-17T20:10:11.961Z,18.02
2022-09-17T20:12:40.811Z,18.02
2022-09-17T20:15:10.540Z,18.02
2022-09-17T20:17:40.633Z,18.10
2022-09-17T20:20:10.552Z,18.06
2022-09-17T20:22:39.527Z,18.09
2022-09-17T20:25:09.457Z,18.10
2022-09-17T20:27:38.725Z,18.07
2022-09-17T20:30:08.562Z,18.03
2022-09-17T20:32:37.437Z,17.97
2022-09-17T20:35:08.485Z,17.93
2022-09-17T20:38:32.953Z,17.94
2022-09-17T20:40:26.196Z,18.01
2022-09-17T20:42:54.983Z,18.10
2022-09-17T20:45:23.936Z,18.24
2022-09-17T20:47:53.698Z,18.37
2022-09-17T20:50:23.926Z,18.51
2022-09-17T20:52:52.702Z,18.64
2022-09-17T20:55:21.733Z,18.78
2022-09-17T20:57:53.714Z,18.86
2022-09-17T21:00:26.315Z,18.95
2022-09-17T21:02:56.339Z,19.00
2022-09-17T21:05:26.599Z,19.06
2022-09-17T21:07:55.473Z,19.09
2022-09-17T21:10:24.237Z,19.10
2022-09-17T21:12:52.975Z,19.09
2022-09-17T21:15:21.693Z,19.12
2022-09-17T21:17:50.814Z,19.15
2022-09-17T21:20:19.492Z,19.14
2022-09-17T21:22:49.697Z,19.20
2022-09-17T21:25:18.495Z,19.23
2022-09-17T21:27:47.279Z,19.17
2022-09-17T21:30:16.196Z,19.18
2022-09-17T21:32:45.056Z,19.23
2022-09-17T21:35:13.781Z,19.15
2022-09-17T21:37:42.454Z,19.02
2022-09-17T21:40:13.010Z,19.06
2022-09-17T21:42:41.796Z,19.07
2022-09-17T21:45:10.996Z,19.04
2022-09-17T21:47:39.618Z,19.09
2022-09-17T21:50:09.172Z,19.08
2022-09-17T21:52:37.888Z,19.09
2022-09-17T21:55:07.596Z,19.10
2022-09-17T21:57:37.810Z,19.08
2022-09-17T22:00:08.102Z,19.07
2022-09-17T22:02:37.338Z,19.05
2022-09-17T22:05:06.858Z,18.98
2022-09-17T22:07:35.645Z,18.97
2022-09-17T22:10:04.659Z,18.84
2022-09-17T22:12:33.712Z,18.83
2022-09-17T22:15:04.531Z,18.71
2022-09-17T22:17:33.375Z,18.70
2022-09-17T22:20:02.164Z,18.68
2022-09-17T22:22:32.244Z,18.48
2022-09-17T22:25:01.115Z,18.46
2022-09-17T22:27:32.528Z,18.45
2022-09-17T22:30:01.293Z,18.33
2022-09-17T22:32:33.884Z,18.29
2022-09-17T22:35:02.772Z,18.26
2022-09-17T22:37:32.220Z,18.20
2022-09-17T22:40:00.960Z,18.19
2022-09-17T22:42:29.740Z,18.19
2022-09-17T22:44:58.443Z,18.15
2022-09-17T22:47:27.075Z,18.07
2022-09-17T22:49:57.424Z,18.06
2022-09-17T22:52:26.236Z,18.16
2022-09-17T22:54:54.964Z,18.03
2022-09-17T22:57:23.737Z,18.05
2022-09-17T22:59:52.497Z,17.90
2022-09-17T23:02:21.401Z,17.90
2022-09-17T23:04:51.019Z,18.00
2022-09-17T23:07:21.331Z,17.81
2022-09-17T23:09:51.646Z,17.79
2022-09-17T23:12:21.648Z,17.54
2022-09-17T23:14:51.795Z,17.34
2022-09-17T23:17:20.609Z,17.23
2022-09-17T23:19:49.468Z,16.92
2022-09-17T23:22:18.227Z,16.86
2022-09-17T23:24:48.679Z,16.77
2022-09-17T23:27:17.442Z,16.69
2022-09-17T23:29:46.054Z,16.51
2022-09-17T23:32:14.788Z,16.34
2022-09-17T23:34:43.579Z,16.24
2022-09-17T23:37:12.294Z,15.95
2022-09-17T23:39:41.582Z,15.82
2022-09-17T23:42:11.799Z,15.70
2022-09-17T23:44:40.600Z,15.57
2022-09-17T23:47:09.521Z,15.39
2022-09-17T23:49:38.300Z,15.37
2022-09-17T23:52:07.447Z,15.22
2022-09-17T23:54:36.139Z,14.96
2022-09-17T23:57:04.957Z,14.90
2022-09-17T23:59:35.744Z,14.82
